Main page
METAR-TAF:

METAR-TAF

Airports :

Barbacena, Minas Gerais, Brazil

latitude: 21-15S, longitude: 043-46W, elevation: 1171 m

Current weather observation

The report was made 6 hours and 28 minutes ago, at 08:00 UTC
Wind 2 kt from the Northeast
Temperature 19°C
Humidity 88%
Pressure 1019 hPa
Visibility: 8000 m
Overcast at a height of 1200 ft

METAR: SBBQ 140800Z 05002KT 8000 OVC012 19/17 Q1019

Time: 12:28 (14:28 UTC)


TAF: missing

Weather observations and forecasts of more than 4000 airports (METAR and TAF reports).

The available stations are represented by yellow and red dots on the map.

Hover mouse over dot to see the name of the station.

Then click to see weather observations and forecasts.

To change the map : click on the green buttons with a black cross to zoom in, on the green button with a dash to zoom out, or on the green arrows for adjacent maps.


METAR-TAF: